NCAR-RAP Real-Time Weather Data

Output produced by METARs form (08 May 2021  16:40 UTC)
found at http://weather.rap.ucar.edu/surface/
 
KTLH 081553Z 00000KT 10SM FEW250 23/02 A3016 RMK AO2 SLP211 T02330017
KTLH 081453Z VRB04KT 10SM FEW250 22/03 A3017 RMK AO2 SLP213 T02220028 53005
KTLH 081353Z 06007KT 10SM FEW250 21/03 A3016 RMK AO2 SLP211 T02060033
KTLH 081253Z 12003KT 10SM CLR 17/08 A3014 RMK AO2 SLP207 T01720083
KTLH 081153Z 00000KT 10SM CLR 12/08 A3015 RMK AO2 SLP209 T01170083 10117 20078 53017
KTLH 081053Z 00000KT 10SM CLR 08/06 A3012 RMK AO2 SLP200 T00780061
KTLH 080953Z 00000KT 10SM CLR 08/06 A3011 RMK AO2 SLP195 T00830061
KTLH 080853Z AUTO 33003KT 10SM CLR 09/07 A3010 RMK AO2 SLP191 T00890067 55001
KTLH 080753Z AUTO 00000KT 10SM CLR 10/07 A3009 RMK AO2 SLP189 T01000067
KTLH 080653Z AUTO 00000KT 10SM CLR 11/07 A3011 RMK AO2 SLP194 T01060072
KTLH 080553Z AUTO 00000KT 10SM CLR 12/07 A3010 RMK AO2 SLP193 T01170072 10244 20117 51007
KTLH 080453Z AUTO 31003KT 10SM CLR 13/08 A3010 RMK AO2 SLP192 T01280078 402780111
KTLH 080353Z AUTO 33004KT 10SM CLR 17/07 A3010 RMK AO2 SLP190 T01720072
KTLH 080253Z 33003KT 10SM CLR 18/07 A3008 RMK AO2 SLP186 T01830067 53020
KTLH 080153Z 02003KT 10SM CLR 19/07 A3006 RMK AO2 SLP178 T01940072
KTLH 080053Z 32005KT 10SM CLR 22/06 A3004 RMK AO2 SLP171 T02170061
KTLH 072353Z 33008KT 10SM FEW070 24/04 A3002 RMK AO2 SLP165 FU FEW070 T02440044 10278 20244 55000
KTLH 072253Z 32010G17KT 10SM CLR 26/04 A3001 RMK AO2 SLP162 T02610044
KTLH 072153Z 33012KT 10SM FEW075 27/05 A3001 RMK AO2 PK WND 31028/2109 SLP162 T02670050
KTLH 072053Z 33016G22KT 10SM SCT075 27/07 A3002 RMK AO2 SLP165 T02720072 58018
KTLH 071953Z 31019G23KT 10SM SCT075 27/06 A3005 RMK AO2 SLP173 T02670056
KTLH 071853Z 32016G24KT 10SM FEW070 27/07 A3006 RMK AO2 PK WND 31028/1823 SLP177 T02670067
KTLH 071753Z 31020G25KT 10SM FEW070 27/06 A3008 RMK AO2 SLP184 T02720061 10272 20144 58009
KTLH 071653Z 33017G22KT 10SM CLR 26/08 A3009 RMK AO2 SLP189 T02610078
KTLH 071553Z 32011KT 10SM CLR 24/08 A3010 RMK AO2 SLP193 T02440078
KTLH 071453Z 33008KT 10SM CLR 22/08 A3010 RMK AO2 SLP193 T02220083 51007
KTLH 071353Z 35007KT 10SM CLR 21/09 A3010 RMK AO2 SLP192 T02110089
KTLH 071253Z 33007KT 10SM CLR 18/09 A3009 RMK AO2 SLP189 T01830094
KTLH 071153Z 29003KT 10SM CLR 14/11 A3008 RMK AO2 SLP185 T01440111 10189 20111 53015
KTLH 071053Z 27003KT 10SM CLR 11/09 A3006 RMK AO2 SLP177 T01110094
KTLH 070953Z AUTO 00000KT 10SM CLR 12/10 A3004 RMK AO2 SLP172 T01220100
KTLH 070853Z AUTO 26003KT 10SM CLR 14/11 A3004 RMK AO2 SLP170 T01440106 55001
KTLH 070753Z AUTO 00000KT 10SM CLR 16/10 A3003 RMK AO2 SLP167 T01610100
KTLH 070653Z AUTO 32004KT 10SM CLR 18/11 A3003 RMK AO2 SLP168 T01780106
KTLH 070553Z AUTO 00000KT 10SM CLR 17/12 A3004 RMK AO2 SLP171 T01670117 10267 20167 51009
KTLH 070453Z AUTO 33005KT 10SM CLR 20/11 A3004 RMK AO2 SLP170 T02000106 402940194
KTLH 070353Z AUTO 32007KT 10SM CLR 21/11 A3003 RMK AO2 SLP168 T02110106
KTLH 070253Z 31007KT 10SM FEW150 22/12 A3001 RMK AO2 SLP162 T02170117 53012
KTLH 070153Z 31006KT 10SM FEW150 22/13 A2999 RMK AO2 SLP155 T02170133
KTLH 070053Z 32007KT 10SM FEW035 FEW150 24/13 A2999 RMK AO2 SLP153 T02440128
KTLH 062353Z 32007KT 10SM FEW050 SCT150 27/13 A2998 RMK AO2 SLP150 TCU DSNT SE T02670128 10294 20267 55007
KTLH 062253Z 30009KT 10SM FEW050 SCT160 28/13 A2997 RMK AO2 SLP148 TCU DSNT SE T02780128
KTLH 062153Z 32007KT 290V360 10SM FEW050 FEW100 SCT160 28/14 A2998 RMK AO2 SLP149 T02780144
KTLH 062053Z 33010KT 10SM SCT050 BKN150 28/14 A3000 RMK AO2 SLP157 T02780144 56015
KTLH 061953Z 31011G15KT 10SM SCT046 BKN160 29/15 A3001 RMK AO2 SLP159 T02890150
KTLH 061853Z 31009KT 10SM SCT042 BKN170 28/16 A3002 RMK AO2 SLP164 T02780161
KTLH 061753Z 33011KT 10SM BKN038 28/17 A3004 RMK AO2 SLP172 T02780172 10278 20211 58012
KTLH 061710Z 32007KT 10SM BKN041 OVC055 26/17 A3005 RMK AO2 T02610172
KTLH 061703Z 34007KT 10SM BKN028 OVC050 27/18 A3005 RMK AO2 T02670178
KTLH 061653Z COR 00000KT 10SM BKN028 OVC050 26/18 A3006 RMK AO2 SLP177 T02610178